sensor_id;sensor_type;location;lat;lon;timestamp;P1;durP1;ratioP1;P2;durP2;ratioP2
10661;SDS011;5379;51.034;7.006;2024-01-10T00:01:01;5.63;;;4.82;;
10661;SDS011;5379;51.034;7.006;2024-01-10T00:03:28;7.78;;;4.15;;
10661;SDS011;5379;51.034;7.006;2024-01-10T00:05:55;5.13;;;4.47;;
10661;SDS011;5379;51.034;7.006;2024-01-10T00:08:23;5.73;;;5.13;;
10661;SDS011;5379;51.034;7.006;2024-01-10T00:10:51;12.48;;;9.70;;
10661;SDS011;5379;51.034;7.006;2024-01-10T00:13:19;5.80;;;5.30;;
10661;SDS011;5379;51.034;7.006;2024-01-10T00:15:47;5.90;;;5.07;;
10661;SDS011;5379;51.034;7.006;2024-01-10T00:18:14;6.75;;;4.25;;
10661;SDS011;5379;51.034;7.006;2024-01-10T00:20:40;5.10;;;3.72;;
10661;SDS011;5379;51.034;7.006;2024-01-10T00:23:08;3.55;;;3.25;;
10661;SDS011;5379;51.034;7.006;2024-01-10T00:25:36;4.32;;;3.92;;
10661;SDS011;5379;51.034;7.006;2024-01-10T00:28:04;4.13;;;3.67;;
10661;SDS011;5379;51.034;7.006;2024-01-10T00:30:31;3.97;;;3.60;;
10661;SDS011;5379;51.034;7.006;2024-01-10T00:32:58;14.98;;;5.13;;
10661;SDS011;5379;51.034;7.006;2024-01-10T00:35:25;8.98;;;5.13;;
10661;SDS011;5379;51.034;7.006;2024-01-10T00:37:52;12.32;;;4.90;;
10661;SDS011;5379;51.034;7.006;2024-01-10T00:40:20;17.80;;;6.70;;
10661;SDS011;5379;51.034;7.006;2024-01-10T00:42:48;29.33;;;5.47;;
10661;SDS011;5379;51.034;7.006;2024-01-10T00:45:15;7.57;;;4.70;;
10661;SDS011;5379;51.034;7.006;2024-01-10T00:47:42;11.20;;;4.80;;
10661;SDS011;5379;51.034;7.006;2024-01-10T00:50:10;7.32;;;4.78;;
10661;SDS011;5379;51.034;7.006;2024-01-10T00:52:37;7.10;;;4.18;;
10661;SDS011;5379;51.034;7.006;2024-01-10T00:55:04;6.90;;;5.18;;
10661;SDS011;5379;51.034;7.006;2024-01-10T00:57:31;5.90;;;4.37;;
10661;SDS011;5379;51.034;7.006;2024-01-10T01:00:00;6.97;;;4.13;;
10661;SDS011;5379;51.034;7.006;2024-01-10T05:30:24;4.07;;;3.42;;
10661;SDS011;5379;51.034;7.006;2024-01-10T05:32:51;5.50;;;3.83;;
10661;SDS011;5379;51.034;7.006;2024-01-10T05:35:17;7.07;;;4.35;;
10661;SDS011;5379;51.034;7.006;2024-01-10T05:37:44;5.50;;;3.88;;
10661;SDS011;5379;51.034;7.006;2024-01-10T05:40:11;4.05;;;3.65;;
10661;SDS011;5379;51.034;7.006;2024-01-10T05:42:38;7.88;;;4.60;;
10661;SDS011;5379;51.034;7.006;2024-01-10T05:45:06;6.03;;;4.22;;
10661;SDS011;5379;51.034;7.006;2024-01-10T05:47:34;4.47;;;4.05;;
10661;SDS011;5379;51.034;7.006;2024-01-10T05:50:02;4.13;;;3.78;;
10661;SDS011;5379;51.034;7.006;2024-01-10T05:52:31;6.82;;;4.28;;
10661;SDS011;5379;51.034;7.006;2024-01-10T05:54:58;5.18;;;3.95;;
10661;SDS011;5379;51.034;7.006;2024-01-10T05:57:26;4.13;;;3.72;;
10661;SDS011;5379;51.034;7.006;2024-01-10T05:59:53;9.55;;;4.05;;
10661;SDS011;5379;51.034;7.006;2024-01-10T06:02:22;4.20;;;3.53;;
10661;SDS011;5379;51.034;7.006;2024-01-10T06:04:50;4.05;;;3.65;;
10661;SDS011;5379;51.034;7.006;2024-01-10T06:07:17;9.85;;;4.63;;
10661;SDS011;5379;51.034;7.006;2024-01-10T06:09:45;6.97;;;4.50;;
10661;SDS011;5379;51.034;7.006;2024-01-10T06:12:13;5.30;;;4.47;;
10661;SDS011;5379;51.034;7.006;2024-01-10T06:14:40;7.35;;;4.40;;
10661;SDS011;5379;51.034;7.006;2024-01-10T06:17:07;3.40;;;3.10;;
10661;SDS011;5379;51.034;7.006;2024-01-10T06:19:33;3.83;;;3.50;;
10661;SDS011;5379;51.034;7.006;2024-01-10T06:22:02;3.95;;;3.65;;
10661;SDS011;5379;51.034;7.006;2024-01-10T06:24:29;8.07;;;4.07;;
10661;SDS011;5379;51.034;7.006;2024-01-10T06:26:56;6.28;;;4.40;;
10661;SDS011;5379;51.034;7.006;2024-01-10T06:29:24;5.47;;;4.00;;
10661;SDS011;5379;51.034;7.006;2024-01-10T06:31:51;6.43;;;4.30;;
10661;SDS011;5379;51.034;7.006;2024-01-10T06:34:18;6.90;;;4.68;;
10661;SDS011;5379;51.034;7.006;2024-01-10T06:36:45;5.57;;;4.30;;
10661;SDS011;5379;51.034;7.006;2024-01-10T06:39:14;5.95;;;4.28;;
10661;SDS011;5379;51.034;7.006;2024-01-10T06:41:42;6.55;;;4.90;;
10661;SDS011;5379;51.034;7.006;2024-01-10T06:44:09;4.65;;;4.00;;
10661;SDS011;5379;51.034;7.006;2024-01-10T06:46:36;3.90;;;3.50;;
10661;SDS011;5379;51.034;7.006;2024-01-10T06:49:03;3.67;;;3.47;;
10661;SDS011;5379;51.034;7.006;2024-01-10T06:51:30;7.47;;;4.10;;
10661;SDS011;5379;51.034;7.006;2024-01-10T06:53:57;4.05;;;3.72;;
10661;SDS011;5379;51.034;7.006;2024-01-10T06:56:29;4.03;;;3.70;;
10661;SDS011;5379;51.034;7.006;2024-01-10T06:58:57;4.40;;;3.97;;
10661;SDS011;5379;51.034;7.006;2024-01-10T07:01:24;6.68;;;4.10;;
10661;SDS011;5379;51.034;7.006;2024-01-10T07:03:51;5.60;;;4.13;;
10661;SDS011;5379;51.034;7.006;2024-01-10T07:06:19;4.75;;;3.88;;
10661;SDS011;5379;51.034;7.006;2024-01-10T07:08:47;4.07;;;3.70;;
10661;SDS011;5379;51.034;7.006;2024-01-10T07:11:15;4.13;;;3.70;;
10661;SDS011;5379;51.034;7.006;2024-01-10T07:13:43;4.47;;;3.58;;
10661;SDS011;5379;51.034;7.006;2024-01-10T07:16:10;6.07;;;4.20;;
10661;SDS011;5379;51.034;7.006;2024-01-10T07:18:40;4.35;;;3.95;;
10661;SDS011;5379;51.034;7.006;2024-01-10T07:21:06;4.68;;;3.95;;
10661;SDS011;5379;51.034;7.006;2024-01-10T07:23:35;5.43;;;4.43;;
10661;SDS011;5379;51.034;7.006;2024-01-10T07:26:03;4.30;;;3.90;;
10661;SDS011;5379;51.034;7.006;2024-01-10T07:28:30;4.15;;;3.80;;
10661;SDS011;5379;51.034;7.006;2024-01-10T07:30:59;5.97;;;4.57;;
10661;SDS011;5379;51.034;7.006;2024-01-10T07:33:27;4.55;;;4.15;;
10661;SDS011;5379;51.034;7.006;2024-01-10T07:35:55;6.90;;;5.05;;
10661;SDS011;5379;51.034;7.006;2024-01-10T07:38:22;6.53;;;5.00;;
10661;SDS011;5379;51.034;7.006;2024-01-10T07:40:49;8.73;;;4.40;;
10661;SDS011;5379;51.034;7.006;2024-01-10T07:43:16;5.65;;;4.40;;
10661;SDS011;5379;51.034;7.006;2024-01-10T07:45:42;5.00;;;4.13;;
10661;SDS011;5379;51.034;7.006;2024-01-10T07:48:11;7.57;;;5.22;;
10661;SDS011;5379;51.034;7.006;2024-01-10T07:50:37;4.70;;;4.28;;
10661;SDS011;5379;51.034;7.006;2024-01-10T07:53:04;5.25;;;4.40;;
10661;SDS011;5379;51.034;7.006;2024-01-10T07:55:32;5.18;;;4.70;;
10661;SDS011;5379;51.034;7.006;2024-01-10T07:57:59;4.85;;;4.38;;
10661;SDS011;5379;51.034;7.006;2024-01-10T08:00:26;9.55;;;4.90;;
10661;SDS011;5379;51.034;7.006;2024-01-10T08:02:53;6.28;;;4.13;;
10661;SDS011;5379;51.034;7.006;2024-01-10T08:05:21;5.20;;;4.70;;
10661;SDS011;5379;51.034;7.006;2024-01-10T08:07:48;6.35;;;5.22;;
10661;SDS011;5379;51.034;7.006;2024-01-10T08:10:15;6.68;;;5.25;;
10661;SDS011;5379;51.034;7.006;2024-01-10T08:12:42;18.95;;;4.80;;
10661;SDS011;5379;51.034;7.006;2024-01-10T08:15:09;7.60;;;5.85;;
10661;SDS011;5379;51.034;7.006;2024-01-10T08:17:36;6.25;;;4.50;;
10661;SDS011;5379;51.034;7.006;2024-01-10T08:20:03;4.35;;;3.92;;
10661;SDS011;5379;51.034;7.006;2024-01-10T08:22:33;5.53;;;4.25;;
10661;SDS011;5379;51.034;7.006;2024-01-10T08:25:00;5.22;;;4.63;;
10661;SDS011;5379;51.034;7.006;2024-01-10T08:27:27;6.18;;;4.55;;
10661;SDS011;5379;51.034;7.006;2024-01-10T08:29:55;5.00;;;4.60;;
10661;SDS011;5379;51.034;7.006;2024-01-10T08:32:22;5.18;;;4.38;;
10661;SDS011;5379;51.034;7.006;2024-01-10T08:34:48;8.32;;;4.80;;
10661;SDS011;5379;51.034;7.006;2024-01-10T08:37:16;9.93;;;4.70;;
10661;SDS011;5379;51.034;7.006;2024-01-10T08:39:44;6.28;;;5.03;;
10661;SDS011;5379;51.034;7.006;2024-01-10T08:42:11;4.15;;;3.75;;
10661;SDS011;5379;51.034;7.006;2024-01-10T08:44:38;4.45;;;4.13;;
10661;SDS011;5379;51.034;7.006;2024-01-10T08:47:05;7.88;;;4.40;;
10661;SDS011;5379;51.034;7.006;2024-01-10T08:49:34;4.77;;;4.30;;
10661;SDS011;5379;51.034;7.006;2024-01-10T08:52:01;5.53;;;4.90;;
10661;SDS011;5379;51.034;7.006;2024-01-10T08:54:28;2.95;;;2.75;;
10661;SDS011;5379;51.034;7.006;2024-01-10T08:56:56;5.90;;;4.20;;
10661;SDS011;5379;51.034;7.006;2024-01-10T08:59:24;7.10;;;4.40;;
10661;SDS011;5379;51.034;7.006;2024-01-10T09:01:53;5.97;;;4.78;;
10661;SDS011;5379;51.034;7.006;2024-01-10T09:04:19;5.70;;;5.10;;
10661;SDS011;5379;51.034;7.006;2024-01-10T09:06:46;5.45;;;4.88;;
10661;SDS011;5379;51.034;7.006;2024-01-10T09:09:13;16.65;;;4.95;;
10661;SDS011;5379;51.034;7.006;2024-01-10T09:11:40;5.83;;;4.43;;
10661;SDS011;5379;51.034;7.006;2024-01-10T09:14:08;5.70;;;4.68;;
10661;SDS011;5379;51.034;7.006;2024-01-10T09:16:35;5.50;;;4.60;;
10661;SDS011;5379;51.034;7.006;2024-01-10T09:19:03;5.68;;;4.47;;
10661;SDS011;5379;51.034;7.006;2024-01-10T09:21:30;4.65;;;4.25;;
10661;SDS011;5379;51.034;7.006;2024-01-10T09:23:57;9.35;;;4.95;;
10661;SDS011;5379;51.034;7.006;2024-01-10T09:26:24;4.40;;;4.07;;
10661;SDS011;5379;51.034;7.006;2024-01-10T09:28:51;7.10;;;4.55;;
10661;SDS011;5379;51.034;7.006;2024-01-10T09:31:20;6.33;;;4.33;;
10661;SDS011;5379;51.034;7.006;2024-01-10T09:33:47;7.10;;;5.03;;
10661;SDS011;5379;51.034;7.006;2024-01-10T09:36:14;4.30;;;3.90;;
10661;SDS011;5379;51.034;7.006;2024-01-10T09:38:41;5.10;;;4.17;;
10661;SDS011;5379;51.034;7.006;2024-01-10T09:41:07;4.50;;;4.20;;
10661;SDS011;5379;51.034;7.006;2024-01-10T09:43:37;4.03;;;3.63;;
10661;SDS011;5379;51.034;7.006;2024-01-10T09:46:04;4.60;;;4.20;;
10661;SDS011;5379;51.034;7.006;2024-01-10T09:48:36;5.80;;;5.23;;
10661;SDS011;5379;51.034;7.006;2024-01-10T09:51:03;5.37;;;4.87;;
10661;SDS011;5379;51.034;7.006;2024-01-10T09:53:30;6.33;;;5.73;;
10661;SDS011;5379;51.034;7.006;2024-01-10T09:55:59;5.13;;;4.40;;
10661;SDS011;5379;51.034;7.006;2024-01-10T09:58:30;5.43;;;4.43;;
10661;SDS011;5379;51.034;7.006;2024-01-10T10:01:04;4.20;;;3.83;;
10661;SDS011;5379;51.034;7.006;2024-01-10T10:03:31;5.77;;;5.20;;
10661;SDS011;5379;51.034;7.006;2024-01-10T10:06:03;5.00;;;4.60;;
10661;SDS011;5379;51.034;7.006;2024-01-10T10:08:30;5.27;;;4.77;;
10661;SDS011;5379;51.034;7.006;2024-01-10T10:10:57;5.83;;;4.47;;
10661;SDS011;5379;51.034;7.006;2024-01-10T10:13:25;5.97;;;4.30;;
10661;SDS011;5379;51.034;7.006;2024-01-10T10:15:59;5.87;;;5.13;;
10661;SDS011;5379;51.034;7.006;2024-01-10T10:18:26;5.53;;;4.83;;
10661;SDS011;5379;51.034;7.006;2024-01-10T10:21:07;4.03;;;3.77;;
10661;SDS011;5379;51.034;7.006;2024-01-10T10:23:35;7.00;;;5.03;;
10661;SDS011;5379;51.034;7.006;2024-01-10T10:26:09;4.50;;;4.10;;
10661;SDS011;5379;51.034;7.006;2024-01-10T10:28:39;6.57;;;5.20;;
10661;SDS011;5379;51.034;7.006;2024-01-10T10:31:06;6.93;;;5.00;;
10661;SDS011;5379;51.034;7.006;2024-01-10T10:33:33;4.63;;;4.23;;
10661;SDS011;5379;51.034;7.006;2024-01-10T10:36:00;4.60;;;4.20;;
10661;SDS011;5379;51.034;7.006;2024-01-10T10:38:29;7.77;;;5.83;;
10661;SDS011;5379;51.034;7.006;2024-01-10T10:40:56;5.67;;;5.17;;
10661;SDS011;5379;51.034;7.006;2024-01-10T10:43:25;6.00;;;4.93;;
10661;SDS011;5379;51.034;7.006;2024-01-10T10:45:52;6.70;;;4.90;;
10661;SDS011;5379;51.034;7.006;2024-01-10T10:48:20;5.67;;;5.17;;
10661;SDS011;5379;51.034;7.006;2024-01-10T10:50:50;5.47;;;4.97;;
10661;SDS011;5379;51.034;7.006;2024-01-10T10:53:21;5.03;;;4.57;;
10661;SDS011;5379;51.034;7.006;2024-01-10T10:55:51;6.47;;;5.10;;
10661;SDS011;5379;51.034;7.006;2024-01-10T10:58:19;11.40;;;5.53;;
10661;SDS011;5379;51.034;7.006;2024-01-10T11:00:46;5.53;;;5.03;;
10661;SDS011;5379;51.034;7.006;2024-01-10T11:03:14;5.50;;;5.00;;
10661;SDS011;5379;51.034;7.006;2024-01-10T11:05:41;3.97;;;3.67;;
10661;SDS011;5379;51.034;7.006;2024-01-10T11:08:08;8.97;;;5.03;;
10661;SDS011;5379;51.034;7.006;2024-01-10T11:10:39;7.60;;;5.63;;
10661;SDS011;5379;51.034;7.006;2024-01-10T11:13:13;6.80;;;5.40;;
10661;SDS011;5379;51.034;7.006;2024-01-10T11:15:58;6.63;;;5.90;;
10661;SDS011;5379;51.034;7.006;2024-01-10T11:18:46;4.93;;;4.53;;
10661;SDS011;5379;51.034;7.006;2024-01-10T11:21:29;5.80;;;4.77;;
10661;SDS011;5379;51.034;7.006;2024-01-10T11:24:04;4.93;;;4.50;;
10661;SDS011;5379;51.034;7.006;2024-01-10T11:26:34;11.33;;;5.03;;
10661;SDS011;5379;51.034;7.006;2024-01-10T11:29:05;6.27;;;5.20;;
10661;SDS011;5379;51.034;7.006;2024-01-10T11:31:32;15.00;;;6.60;;
10661;SDS011;5379;51.034;7.006;2024-01-10T11:34:00;5.93;;;5.43;;
10661;SDS011;5379;51.034;7.006;2024-01-10T11:36:28;7.17;;;6.13;;
10661;SDS011;5379;51.034;7.006;2024-01-10T11:38:57;6.70;;;6.07;;
10661;SDS011;5379;51.034;7.006;2024-01-10T11:41:27;6.17;;;5.63;;
10661;SDS011;5379;51.034;7.006;2024-01-10T11:46:56;10.47;;;5.37;;
10661;SDS011;5379;51.034;7.006;2024-01-10T11:49:24;6.90;;;6.00;;
10661;SDS011;5379;51.034;7.006;2024-01-10T11:51:52;5.47;;;4.93;;
10661;SDS011;5379;51.034;7.006;2024-01-10T11:54:36;6.87;;;5.80;;
10661;SDS011;5379;51.034;7.006;2024-01-10T11:57:09;6.77;;;6.17;;
10661;SDS011;5379;51.034;7.006;2024-01-10T11:59:38;8.67;;;6.30;;
10661;SDS011;5379;51.034;7.006;2024-01-10T12:02:08;10.83;;;6.60;;
10661;SDS011;5379;51.034;7.006;2024-01-10T12:04:36;6.03;;;5.53;;
10661;SDS011;5379;51.034;7.006;2024-01-10T12:07:03;6.03;;;5.47;;
10661;SDS011;5379;51.034;7.006;2024-01-10T12:09:32;5.43;;;4.33;;
10661;SDS011;5379;51.034;7.006;2024-01-10T12:11:59;5.60;;;5.13;;
10661;SDS011;5379;51.034;7.006;2024-01-10T12:14:26;17.47;;;6.40;;
10661;SDS011;5379;51.034;7.006;2024-01-10T12:16:55;9.07;;;6.10;;
10661;SDS011;5379;51.034;7.006;2024-01-10T12:19:22;7.40;;;5.23;;
10661;SDS011;5379;51.034;7.006;2024-01-10T12:21:49;6.43;;;5.77;;
10661;SDS011;5379;51.034;7.006;2024-01-10T12:24:17;6.03;;;5.43;;
10661;SDS011;5379;51.034;7.006;2024-01-10T12:26:44;5.73;;;4.90;;
10661;SDS011;5379;51.034;7.006;2024-01-10T12:29:11;6.57;;;5.10;;
10661;SDS011;5379;51.034;7.006;2024-01-10T12:31:38;6.30;;;5.17;;
10661;SDS011;5379;51.034;7.006;2024-01-10T12:34:08;8.63;;;6.03;;
10661;SDS011;5379;51.034;7.006;2024-01-10T12:36:35;6.93;;;5.40;;
10661;SDS011;5379;51.034;7.006;2024-01-10T12:39:02;8.57;;;5.90;;
10661;SDS011;5379;51.034;7.006;2024-01-10T12:41:31;5.87;;;5.37;;
10661;SDS011;5379;51.034;7.006;2024-01-10T12:43:59;6.27;;;5.67;;
10661;SDS011;5379;51.034;7.006;2024-01-10T12:46:28;6.60;;;4.63;;
10661;SDS011;5379;51.034;7.006;2024-01-10T12:48:59;29.33;;;6.30;;
10661;SDS011;5379;51.034;7.006;2024-01-10T12:51:28;6.17;;;5.20;;
10661;SDS011;5379;51.034;7.006;2024-01-10T12:53:55;5.80;;;5.37;;
10661;SDS011;5379;51.034;7.006;2024-01-10T12:56:23;5.27;;;4.77;;
10661;SDS011;5379;51.034;7.006;2024-01-10T12:58:50;6.57;;;4.90;;
10661;SDS011;5379;51.034;7.006;2024-01-10T13:01:17;6.50;;;5.90;;
10661;SDS011;5379;51.034;7.006;2024-01-10T13:03:45;6.97;;;5.80;;
10661;SDS011;5379;51.034;7.006;2024-01-10T13:06:13;6.20;;;5.60;;
10661;SDS011;5379;51.034;7.006;2024-01-10T13:08:42;9.37;;;6.57;;
10661;SDS011;5379;51.034;7.006;2024-01-10T13:11:09;6.30;;;5.70;;
10661;SDS011;5379;51.034;7.006;2024-01-10T13:13:35;6.87;;;6.27;;
10661;SDS011;5379;51.034;7.006;2024-01-10T13:16:03;7.80;;;6.53;;
10661;SDS011;5379;51.034;7.006;2024-01-10T13:18:30;9.57;;;4.93;;
10661;SDS011;5379;51.034;7.006;2024-01-10T13:20:57;7.83;;;6.07;;
10661;SDS011;5379;51.034;7.006;2024-01-10T13:23:24;7.80;;;6.40;;
10661;SDS011;5379;51.034;7.006;2024-01-10T13:25:52;7.00;;;6.00;;
10661;SDS011;5379;51.034;7.006;2024-01-10T13:28:18;6.87;;;6.27;;
10661;SDS011;5379;51.034;7.006;2024-01-10T13:30:46;6.73;;;5.73;;
10661;SDS011;5379;51.034;7.006;2024-01-10T13:33:12;6.83;;;5.70;;
10661;SDS011;5379;51.034;7.006;2024-01-10T13:35:39;11.07;;;6.00;;
10661;SDS011;5379;51.034;7.006;2024-01-10T13:38:06;12.17;;;6.30;;
10661;SDS011;5379;51.034;7.006;2024-01-10T13:40:35;5.63;;;5.07;;
10661;SDS011;5379;51.034;7.006;2024-01-10T13:43:05;5.90;;;5.23;;
10661;SDS011;5379;51.034;7.006;2024-01-10T13:45:32;6.20;;;5.60;;
10661;SDS011;5379;51.034;7.006;2024-01-10T13:47:58;6.30;;;5.77;;
10661;SDS011;5379;51.034;7.006;2024-01-10T13:50:25;5.43;;;4.93;;
10661;SDS011;5379;51.034;7.006;2024-01-10T13:52:53;6.30;;;5.70;;
10661;SDS011;5379;51.034;7.006;2024-01-10T13:55:20;8.87;;;6.10;;
10661;SDS011;5379;51.034;7.006;2024-01-10T13:57:48;10.83;;;6.77;;
10661;SDS011;5379;51.034;7.006;2024-01-10T14:00:18;5.93;;;5.40;;
10661;SDS011;5379;51.034;7.006;2024-01-10T14:02:46;6.90;;;6.07;;
10661;SDS011;5379;51.034;7.006;2024-01-10T14:05:13;9.47;;;5.47;;
10661;SDS011;5379;51.034;7.006;2024-01-10T14:07:40;5.47;;;5.07;;
10661;SDS011;5379;51.034;7.006;2024-01-10T14:10:09;8.17;;;6.13;;
10661;SDS011;5379;51.034;7.006;2024-01-10T14:12:38;7.27;;;5.43;;
10661;SDS011;5379;51.034;7.006;2024-01-10T14:15:05;8.83;;;5.50;;
10661;SDS011;5379;51.034;7.006;2024-01-10T14:17:33;6.87;;;5.67;;
10661;SDS011;5379;51.034;7.006;2024-01-10T14:20:00;7.33;;;6.43;;
10661;SDS011;5379;51.034;7.006;2024-01-10T14:22:27;10.27;;;6.70;;
10661;SDS011;5379;51.034;7.006;2024-01-10T14:24:54;9.80;;;6.13;;
10661;SDS011;5379;51.034;7.006;2024-01-10T14:27:21;7.07;;;6.37;;
10661;SDS011;5379;51.034;7.006;2024-01-10T14:29:49;7.77;;;6.90;;
10661;SDS011;5379;51.034;7.006;2024-01-10T14:32:16;7.37;;;5.53;;
10661;SDS011;5379;51.034;7.006;2024-01-10T14:34:44;10.33;;;6.63;;
10661;SDS011;5379;51.034;7.006;2024-01-10T14:37:12;6.97;;;5.57;;
10661;SDS011;5379;51.034;7.006;2024-01-10T14:39:39;7.03;;;6.33;;
10661;SDS011;5379;51.034;7.006;2024-01-10T14:42:06;6.97;;;6.30;;
10661;SDS011;5379;51.034;7.006;2024-01-10T14:44:34;6.47;;;5.37;;
10661;SDS011;5379;51.034;7.006;2024-01-10T14:47:01;12.07;;;6.57;;
10661;SDS011;5379;51.034;7.006;2024-01-10T14:49:28;6.87;;;6.17;;
10661;SDS011;5379;51.034;7.006;2024-01-10T14:51:57;8.57;;;5.80;;
10661;SDS011;5379;51.034;7.006;2024-01-10T14:54:23;11.30;;;7.20;;
10661;SDS011;5379;51.034;7.006;2024-01-10T14:56:51;9.80;;;7.20;;
10661;SDS011;5379;51.034;7.006;2024-01-10T14:59:18;12.27;;;7.67;;
10661;SDS011;5379;51.034;7.006;2024-01-10T15:01:45;7.43;;;6.73;;
10661;SDS011;5379;51.034;7.006;2024-01-10T15:04:13;10.40;;;7.73;;
10661;SDS011;5379;51.034;7.006;2024-01-10T15:06:44;11.37;;;7.00;;
10661;SDS011;5379;51.034;7.006;2024-01-10T15:09:16;14.33;;;7.77;;
10661;SDS011;5379;51.034;7.006;2024-01-10T15:11:55;12.80;;;7.10;;
10661;SDS011;5379;51.034;7.006;2024-01-10T15:14:29;11.37;;;7.47;;
10661;SDS011;5379;51.034;7.006;2024-01-10T15:17:00;12.23;;;7.47;;
10661;SDS011;5379;51.034;7.006;2024-01-10T15:19:38;7.00;;;6.33;;
10661;SDS011;5379;51.034;7.006;2024-01-10T15:22:09;7.27;;;6.50;;
10661;SDS011;5379;51.034;7.006;2024-01-10T15:24:37;8.50;;;6.43;;
10661;SDS011;5379;51.034;7.006;2024-01-10T15:27:05;15.10;;;7.07;;
10661;SDS011;5379;51.034;7.006;2024-01-10T15:29:33;7.00;;;6.30;;
10661;SDS011;5379;51.034;7.006;2024-01-10T15:32:01;6.93;;;6.27;;
10661;SDS011;5379;51.034;7.006;2024-01-10T15:34:29;9.73;;;6.27;;
10661;SDS011;5379;51.034;7.006;2024-01-10T15:36:55;11.45;;;7.03;;
10661;SDS011;5379;51.034;7.006;2024-01-10T15:39:23;8.77;;;6.43;;
10661;SDS011;5379;51.034;7.006;2024-01-10T15:41:51;10.70;;;5.80;;
10661;SDS011;5379;51.034;7.006;2024-01-10T15:44:18;8.93;;;6.70;;
10661;SDS011;5379;51.034;7.006;2024-01-10T15:46:45;6.93;;;5.60;;
10661;SDS011;5379;51.034;7.006;2024-01-10T15:49:12;9.63;;;6.57;;
10661;SDS011;5379;51.034;7.006;2024-01-10T15:51:40;8.53;;;6.93;;
10661;SDS011;5379;51.034;7.006;2024-01-10T15:54:06;12.77;;;7.03;;
10661;SDS011;5379;51.034;7.006;2024-01-10T15:56:33;7.33;;;6.50;;
10661;SDS011;5379;51.034;7.006;2024-01-10T15:59:05;6.97;;;6.37;;
10661;SDS011;5379;51.034;7.006;2024-01-10T16:01:32;7.97;;;6.83;;
10661;SDS011;5379;51.034;7.006;2024-01-10T16:03:59;14.43;;;7.60;;
10661;SDS011;5379;51.034;7.006;2024-01-10T16:06:26;11.60;;;6.90;;
10661;SDS011;5379;51.034;7.006;2024-01-10T16:08:53;7.87;;;6.07;;
10661;SDS011;5379;51.034;7.006;2024-01-10T16:11:20;7.07;;;6.37;;
10661;SDS011;5379;51.034;7.006;2024-01-10T16:13:49;7.43;;;6.30;;
10661;SDS011;5379;51.034;7.006;2024-01-10T16:16:17;22.07;;;13.43;;
10661;SDS011;5379;51.034;7.006;2024-01-10T16:18:48;21.53;;;14.63;;
10661;SDS011;5379;51.034;7.006;2024-01-10T16:21:15;12.93;;;9.97;;
10661;SDS011;5379;51.034;7.006;2024-01-10T16:23:42;11.07;;;8.60;;
10661;SDS011;5379;51.034;7.006;2024-01-10T16:26:09;15.63;;;12.53;;
10661;SDS011;5379;51.034;7.006;2024-01-10T16:28:36;24.37;;;15.37;;
10661;SDS011;5379;51.034;7.006;2024-01-10T16:31:03;18.27;;;10.50;;
10661;SDS011;5379;51.034;7.006;2024-01-10T16:33:32;10.63;;;9.00;;
10661;SDS011;5379;51.034;7.006;2024-01-10T16:35:59;12.53;;;8.97;;
10661;SDS011;5379;51.034;7.006;2024-01-10T16:38:26;9.07;;;8.17;;
10661;SDS011;5379;51.034;7.006;2024-01-10T16:40:53;12.40;;;8.70;;
10661;SDS011;5379;51.034;7.006;2024-01-10T16:43:19;10.50;;;9.23;;
10661;SDS011;5379;51.034;7.006;2024-01-10T16:45:47;15.33;;;10.30;;
10661;SDS011;5379;51.034;7.006;2024-01-10T16:48:14;10.47;;;9.33;;
10661;SDS011;5379;51.034;7.006;2024-01-10T16:50:42;15.10;;;9.77;;
10661;SDS011;5379;51.034;7.006;2024-01-10T16:53:09;20.17;;;14.20;;
10661;SDS011;5379;51.034;7.006;2024-01-10T16:55:35;23.27;;;13.40;;
10661;SDS011;5379;51.034;7.006;2024-01-10T16:58:02;26.17;;;13.37;;
10661;SDS011;5379;51.034;7.006;2024-01-10T17:00:29;14.53;;;11.37;;
10661;SDS011;5379;51.034;7.006;2024-01-10T17:02:56;12.57;;;11.23;;
10661;SDS011;5379;51.034;7.006;2024-01-10T17:05:24;15.20;;;11.20;;
10661;SDS011;5379;51.034;7.006;2024-01-10T17:07:52;15.60;;;9.73;;
10661;SDS011;5379;51.034;7.006;2024-01-10T17:10:19;11.80;;;9.33;;
10661;SDS011;5379;51.034;7.006;2024-01-10T17:12:46;24.90;;;9.90;;
10661;SDS011;5379;51.034;7.006;2024-01-10T17:15:12;13.30;;;10.00;;
10661;SDS011;5379;51.034;7.006;2024-01-10T17:17:39;10.07;;;8.53;;
10661;SDS011;5379;51.034;7.006;2024-01-10T17:20:06;13.80;;;8.97;;
10661;SDS011;5379;51.034;7.006;2024-01-10T17:22:35;8.67;;;7.80;;
10661;SDS011;5379;51.034;7.006;2024-01-10T17:25:03;10.77;;;9.33;;
10661;SDS011;5379;51.034;7.006;2024-01-10T17:27:31;15.20;;;10.70;;
10661;SDS011;5379;51.034;7.006;2024-01-10T17:29:58;14.33;;;10.30;;
10661;SDS011;5379;51.034;7.006;2024-01-10T17:32:25;11.43;;;9.77;;
10661;SDS011;5379;51.034;7.006;2024-01-10T17:34:51;13.67;;;9.53;;
10661;SDS011;5379;51.034;7.006;2024-01-10T17:37:18;12.70;;;10.23;;
10661;SDS011;5379;51.034;7.006;2024-01-10T17:39:45;11.87;;;9.60;;
10661;SDS011;5379;51.034;7.006;2024-01-10T17:42:13;16.20;;;11.23;;
10661;SDS011;5379;51.034;7.006;2024-01-10T17:44:40;9.87;;;8.87;;
10661;SDS011;5379;51.034;7.006;2024-01-10T17:47:07;10.60;;;9.53;;
10661;SDS011;5379;51.034;7.006;2024-01-10T17:49:34;22.33;;;10.87;;
10661;SDS011;5379;51.034;7.006;2024-01-10T17:52:02;14.57;;;10.50;;
10661;SDS011;5379;51.034;7.006;2024-01-10T17:54:29;9.43;;;8.47;;
10661;SDS011;5379;51.034;7.006;2024-01-10T17:56:56;13.40;;;10.10;;
10661;SDS011;5379;51.034;7.006;2024-01-10T17:59:25;13.90;;;10.13;;
10661;SDS011;5379;51.034;7.006;2024-01-10T18:01:53;15.43;;;11.17;;
10661;SDS011;5379;51.034;7.006;2024-01-10T18:04:22;11.93;;;9.80;;
10661;SDS011;5379;51.034;7.006;2024-01-10T18:07:23;15.87;;;9.57;;
10661;SDS011;5379;51.034;7.006;2024-01-10T18:09:55;10.30;;;8.60;;
10661;SDS011;5379;51.034;7.006;2024-01-10T18:13:00;12.87;;;9.70;;
10661;SDS011;5379;51.034;7.006;2024-01-10T18:15:46;10.90;;;8.77;;
10661;SDS011;5379;51.034;7.006;2024-01-10T18:18:13;9.60;;;8.37;;
10661;SDS011;5379;51.034;7.006;2024-01-10T18:20:40;15.97;;;10.57;;
10661;SDS011;5379;51.034;7.006;2024-01-10T18:23:07;11.60;;;10.03;;
10661;SDS011;5379;51.034;7.006;2024-01-10T18:25:34;17.00;;;11.33;;
10661;SDS011;5379;51.034;7.006;2024-01-10T18:28:01;13.77;;;10.63;;
10661;SDS011;5379;51.034;7.006;2024-01-10T18:30:28;13.90;;;10.87;;
10661;SDS011;5379;51.034;7.006;2024-01-10T18:32:56;16.20;;;11.47;;
10661;SDS011;5379;51.034;7.006;2024-01-10T18:35:26;16.03;;;11.57;;
10661;SDS011;5379;51.034;7.006;2024-01-10T18:37:52;15.53;;;11.60;;
10661;SDS011;5379;51.034;7.006;2024-01-10T18:40:19;25.07;;;13.40;;
10661;SDS011;5379;51.034;7.006;2024-01-10T18:42:46;22.90;;;14.60;;
10661;SDS011;5379;51.034;7.006;2024-01-10T18:45:13;23.50;;;15.00;;
10661;SDS011;5379;51.034;7.006;2024-01-10T18:47:40;16.37;;;13.40;;
10661;SDS011;5379;51.034;7.006;2024-01-10T18:50:08;17.00;;;14.33;;
10661;SDS011;5379;51.034;7.006;2024-01-10T18:52:35;15.63;;;12.83;;
10661;SDS011;5379;51.034;7.006;2024-01-10T18:55:02;14.50;;;12.70;;
10661;SDS011;5379;51.034;7.006;2024-01-10T18:57:31;17.80;;;13.00;;
10661;SDS011;5379;51.034;7.006;2024-01-10T18:59:58;14.00;;;12.10;;
10661;SDS011;5379;51.034;7.006;2024-01-10T19:02:25;15.57;;;11.07;;
10661;SDS011;5379;51.034;7.006;2024-01-10T19:04:51;21.07;;;14.23;;
10661;SDS011;5379;51.034;7.006;2024-01-10T19:07:20;22.23;;;14.50;;
10661;SDS011;5379;51.034;7.006;2024-01-10T19:09:46;24.40;;;13.57;;
10661;SDS011;5379;51.034;7.006;2024-01-10T19:12:12;27.50;;;14.53;;
10661;SDS011;5379;51.034;7.006;2024-01-10T19:14:39;17.57;;;13.70;;
10661;SDS011;5379;51.034;7.006;2024-01-10T19:17:07;17.77;;;12.53;;
10661;SDS011;5379;51.034;7.006;2024-01-10T19:19:34;19.63;;;13.37;;
10661;SDS011;5379;51.034;7.006;2024-01-10T19:22:03;17.07;;;12.13;;
10661;SDS011;5379;51.034;7.006;2024-01-10T19:24:32;17.93;;;12.97;;
10661;SDS011;5379;51.034;7.006;2024-01-10T19:27:00;22.00;;;14.43;;
10661;SDS011;5379;51.034;7.006;2024-01-10T19:29:28;20.53;;;14.00;;
10661;SDS011;5379;51.034;7.006;2024-01-10T19:31:56;23.30;;;13.70;;